Time;durP1;ratioP1;P1;durP2;ratioP2;P2;SDS_P1;SDS_P2;PMS_P1;PMS_P2;Temp;Humidity;BMP_temperature;BMP_pressure;BME280_temperature;BME280_humidity;BME280_pressure;Samples;Min_cycle;Max_cycle;Signal;HPM_P1;HPM_P2
2022/04/15 00:00:28;;;;;;;8.02;3.50;;;;;;;17.93;52.58;99118.50;5090116;28;20428;-50
2022/04/15 00:02:53;;;;;;;10.82;3.78;;;;;;;17.97;52.54;99116.19;5090016;28;20028;-49
2022/04/15 00:05:35;;;;;;;7.80;3.80;;;;;;;17.98;52.61;99116.97;5091398;28;20398;-50
2022/04/15 00:08:09;;;;;;;7.53;3.35;;;;;;;17.96;52.55;99115.34;5091415;28;20036;-51
2022/04/15 00:10:35;;;;;;;7.47;2.78;;;;;;;17.90;52.52;99116.31;5090084;28;20024;-50
2022/04/15 00:13:03;;;;;;;6.60;3.03;;;;;;;17.83;52.89;99112.13;5090004;28;20051;-50
2022/04/15 00:15:29;;;;;;;14.38;3.63;;;;;;;17.77;52.84;99113.91;5091809;28;20020;-51
2022/04/15 00:17:55;;;;;;;9.10;3.83;;;;;;;17.70;52.80;99110.56;5094994;28;20028;-51
2022/04/15 00:20:22;;;;;;;10.65;3.10;;;;;;;17.65;52.89;99110.50;5093664;28;20031;-51
2022/04/15 00:22:48;;;;;;;8.65;2.78;;;;;;;17.58;53.21;99107.97;5094845;28;20016;-51
2022/04/15 00:25:14;;;;;;;8.60;3.10;;;;;;;17.55;53.17;99100.47;5093561;28;20078;-50
2022/04/15 00:27:40;;;;;;;7.30;2.88;;;;;;;17.53;53.16;99102.56;5093518;28;20401;-52
2022/04/15 00:30:08;;;;;;;9.45;2.88;;;;;;;17.53;53.32;99108.66;5094806;28;20684;-50
2022/04/15 00:32:35;;;;;;;20.75;4.25;;;;;;;17.54;53.30;99107.63;5094759;28;20115;-50
2022/04/15 00:35:00;;;;;;;6.55;2.92;;;;;;;17.56;53.24;99104.72;5093141;28;20059;-51
2022/04/15 00:37:26;;;;;;;12.35;2.90;;;;;;;17.49;53.32;99110.19;5094719;28;20032;-50
2022/04/15 00:39:52;;;;;;;10.30;2.63;;;;;;;17.46;53.56;99110.63;5093307;28;20517;-51
2022/04/15 00:42:20;;;;;;;11.55;3.70;;;;;;;17.43;53.51;99110.31;5093167;28;20031;-50
2022/04/15 00:44:46;;;;;;;8.23;3.20;;;;;;;17.36;53.68;99113.91;5093176;28;20437;-49
2022/04/15 00:47:23;;;;;;;8.23;2.40;;;;;;;17.32;53.75;99102.13;5093098;28;20070;-51
2022/04/15 00:49:49;;;;;;;10.00;3.42;;;;;;;17.30;53.63;99109.53;5093164;28;20038;-50
2022/04/15 00:52:17;;;;;;;10.68;3.30;;;;;;;17.27;53.62;99102.03;5094347;28;20107;-51
2022/04/15 00:54:48;;;;;;;8.13;2.90;;;;;;;17.22;54.02;99109.88;5094374;28;20505;-51
2022/04/15 00:57:16;;;;;;;7.18;2.97;;;;;;;17.20;53.91;99101.34;5092965;28;20119;-50
2022/04/15 00:59:44;;;;;;;9.45;2.78;;;;;;;17.24;53.72;99107.81;5092961;28;20032;-50
2022/04/15 01:02:11;;;;;;;5.97;2.88;;;;;;;17.25;53.89;99109.44;5092802;28;20074;-50
2022/04/15 01:04:43;;;;;;;10.05;3.25;;;;;;;17.17;53.91;99105.28;5094087;28;20051;-50
2022/04/15 01:07:12;;;;;;;13.55;4.55;;;;;;;17.18;53.86;99098.13;5094108;28;20020;-50
2022/04/15 01:09:42;;;;;;;8.70;2.97;;;;;;;17.12;54.01;99105.19;5092731;28;20035;-50
2022/04/15 01:12:09;;;;;;;11.18;2.70;;;;;;;17.05;54.04;99103.69;5092724;28;20024;-51
2022/04/15 01:14:38;;;;;;;6.97;3.38;;;;;;;16.97;54.24;99110.16;5094062;28;20031;-50
2022/04/15 01:17:04;;;;;;;9.18;3.10;;;;;;;16.92;54.55;99108.19;5092545;28;20055;-50
2022/04/15 01:19:30;;;;;;;8.38;4.25;;;;;;;16.99;54.44;99108.06;5092538;28;20051;-50
2022/04/15 01:21:56;;;;;;;5.32;2.47;;;;;;;16.97;54.29;99113.59;5093751;28;20784;-51
2022/04/15 01:24:23;;;;;;;7.97;2.80;;;;;;;16.91;54.47;99114.53;5093773;28;20490;-50
2022/04/15 01:26:50;;;;;;;8.20;2.78;;;;;;;16.85;54.70;99117.31;5091707;28;20021;-50
2022/04/15 01:29:15;;;;;;;9.52;3.00;;;;;;;16.81;54.90;99124.91;5091969;28;20398;-50
2022/04/15 01:31:41;;;;;;;10.48;3.47;;;;;;;16.76;54.71;99125.56;5092310;28;20028;-50
2022/04/15 01:34:07;;;;;;;6.45;2.95;;;;;;;16.75;54.86;99123.94;5091994;28;20020;-50
2022/04/15 01:36:33;;;;;;;9.38;3.00;;;;;;;16.71;54.75;99122.00;5093588;28;20031;-51
2022/04/15 01:39:00;;;;;;;8.27;3.00;;;;;;;16.70;55.01;99123.00;5092187;28;20038;-51
2022/04/15 01:41:26;;;;;;;7.32;2.65;;;;;;;16.72;54.94;99126.25;5093310;28;20024;-50
2022/04/15 01:43:51;;;;;;;9.05;3.05;;;;;;;16.71;54.98;99129.94;5092096;28;20027;-50
2022/04/15 01:46:17;;;;;;;7.15;2.70;;;;;;;16.65;54.75;99130.84;5093417;28;20053;-51
2022/04/15 01:48:43;;;;;;;10.75;3.22;;;;;;;16.58;55.35;99123.03;5093328;28;20020;-50
2022/04/15 01:51:08;;;;;;;14.30;4.60;;;;;;;16.56;55.17;99130.41;5091956;28;20390;-50
2022/04/15 01:53:34;;;;;;;13.63;3.20;;;;;;;16.54;55.27;99133.25;5093319;28;20107;-50
2022/04/15 01:56:00;;;;;;;6.13;2.45;;;;;;;16.58;55.29;99131.78;5093180;28;20066;-51
2022/04/15 01:58:25;;;;;;;7.05;2.78;;;;;;;16.58;55.13;99137.06;5091838;28;20059;-50
2022/04/15 02:00:51;;;;;;;8.52;2.67;;;;;;;16.51;55.18;99131.06;5091763;28;20016;-50
2022/04/15 02:03:17;;;;;;;6.63;2.63;;;;;;;16.51;55.16;99136.34;5091658;28;20101;-50
2022/04/15 02:05:42;;;;;;;7.57;3.33;;;;;;;16.45;55.31;99131.97;5092990;28;20038;-49
2022/04/15 02:08:08;;;;;;;10.63;2.83;;;;;;;16.39;55.56;99143.47;5092913;28;20432;-51
2022/04/15 02:10:34;;;;;;;6.60;2.78;;;;;;;16.40;55.49;99134.50;5091556;28;20073;-50
2022/04/15 02:13:00;;;;;;;9.40;2.45;;;;;;;16.38;55.37;99134.72;5092842;28;20082;-50
2022/04/15 02:15:25;;;;;;;9.15;3.20;;;;;;;16.34;55.65;99135.41;5092771;28;20509;-50
2022/04/15 02:17:51;;;;;;;3.92;2.88;;;;;;;16.34;55.48;99135.41;5091404;28;20023;-50
2022/04/15 02:20:17;;;;;;;9.25;2.60;;;;;;;16.32;55.46;99133.00;5091385;28;20107;-50
2022/04/15 02:22:42;;;;;;;9.40;2.92;;;;;;;16.23;55.66;99131.69;5092582;28;20100;-51
2022/04/15 02:25:09;;;;;;;8.57;3.10;;;;;;;16.17;55.68;99143.97;5092584;28;20073;-49
2022/04/15 02:27:34;;;;;;;6.53;2.70;;;;;;;16.09;56.02;99141.66;5091286;28;20520;-51
2022/04/15 02:30:00;;;;;;;10.38;3.05;;;;;;;16.03;56.29;99139.91;5092544;28;20020;-50
2022/04/15 02:32:29;;;;;;;8.85;3.22;;;;;;;16.02;56.41;99138.31;5092415;28;20064;-51
2022/04/15 02:34:54;;;;;;;4.57;2.03;;;;;;;16.00;56.18;99134.25;5092167;28;20043;-50
2022/04/15 02:37:20;;;;;;;9.35;3.20;;;;;;;15.93;56.31;99139.63;5092496;28;20016;-50
2022/04/15 02:39:46;;;;;;;10.18;2.50;;;;;;;15.96;56.53;99144.50;5090798;28;20052;-49
2022/04/15 02:42:11;;;;;;;10.05;3.20;;;;;;;16.03;56.02;99142.56;5090957;28;20020;-50
2022/04/15 02:44:38;;;;;;;8.68;3.28;;;;;;;16.01;56.15;99149.91;5092317;28;20048;-50
2022/04/15 02:47:04;;;;;;;6.18;2.80;;;;;;;15.98;56.22;99153.03;5090920;28;20052;-50
2022/04/15 02:49:30;;;;;;;10.57;2.60;;;;;;;15.96;56.38;99140.00;5090916;28;20034;-50
2022/04/15 02:51:56;;;;;;;4.07;2.05;;;;;;;15.99;56.11;99138.75;5090858;28;20028;-50
2022/04/15 02:54:23;;;;;;;5.90;2.25;;;;;;;15.93;56.26;99134.34;5092199;28;20016;-50
2022/04/15 02:56:48;;;;;;;7.78;2.50;;;;;;;15.89;56.43;99126.03;5090749;28;20024;-50
2022/04/15 02:59:16;;;;;;;9.13;2.40;;;;;;;15.87;56.32;99136.03;5092098;28;20375;-50
2022/04/15 03:01:44;;;;;;;11.15;2.42;;;;;;;15.85;56.40;99122.22;5090621;28;20024;-51
2022/04/15 03:04:10;;;;;;;9.48;2.75;;;;;;;15.86;56.39;99129.16;5090750;28;20044;-48
2022/04/15 03:06:35;;;;;;;7.22;2.65;;;;;;;15.92;56.02;99132.75;5090746;28;20045;-51
2022/04/15 03:09:01;;;;;;;9.57;2.35;;;;;;;15.94;56.22;99142.06;5092051;28;20027;-49
2022/04/15 03:11:27;;;;;;;6.82;2.45;;;;;;;15.90;56.21;99132.97;5090693;28;20020;-49
2022/04/15 03:13:53;;;;;;;5.53;2.25;;;;;;;15.87;56.18;99132.59;5090570;28;20028;-50
2022/04/15 03:16:18;;;;;;;12.10;3.40;;;;;;;15.83;56.53;99137.53;5092181;28;20024;-49
2022/04/15 03:18:44;;;;;;;9.63;2.88;;;;;;;15.78;56.47;99135.53;5090522;28;20465;-49
2022/04/15 03:21:10;;;;;;;7.85;2.47;;;;;;;15.73;56.43;99143.34;5091851;28;20077;-50
2022/04/15 03:23:36;;;;;;;9.32;4.55;;;;;;;15.70;56.53;99141.13;5091708;28;20024;-50
2022/04/15 03:26:02;;;;;;;10.35;3.40;;;;;;;15.74;56.78;99144.16;5090421;28;20390;-50
2022/04/15 03:28:27;;;;;;;13.05;3.42;;;;;;;15.80;56.42;99153.84;5090459;28;20024;-50
2022/04/15 03:30:53;;;;;;;8.95;3.03;;;;;;;15.77;56.38;99146.34;5091737;28;20108;-50
2022/04/15 03:33:19;;;;;;;8.68;2.30;;;;;;;15.66;56.41;99149.72;5091756;28;20035;-49
2022/04/15 03:35:44;;;;;;;3.78;2.65;;;;;;;15.48;56.35;99155.84;5090183;28;20411;-50
2022/04/15 03:38:10;;;;;;;7.85;2.90;;;;;;;15.21;57.06;99157.94;5091698;28;20054;-49
2022/04/15 03:40:36;;;;;;;9.90;3.13;;;;;;;14.96;57.61;99159.56;5090300;28;20436;-49
2022/04/15 03:43:03;;;;;;;7.63;2.85;;;;;;;14.88;57.83;99164.34;5090282;28;20019;-49
2022/04/15 03:45:29;;;;;;;8.20;2.50;;;;;;;14.83;58.07;99161.53;5090310;28;20043;-50
2022/04/15 03:47:55;;;;;;;4.15;2.45;;;;;;;14.83;58.21;99164.16;5090257;28;20502;-50
2022/04/15 03:50:21;;;;;;;6.95;2.35;;;;;;;14.83;58.38;99162.34;5090580;28;20502;-50
2022/04/15 03:52:48;;;;;;;10.30;3.10;;;;;;;14.84;58.50;99152.59;5094242;28;20031;-50
2022/04/15 03:55:16;;;;;;;6.05;2.92;;;;;;;14.85;58.67;99159.47;5094199;28;20114;-50
2022/04/15 03:57:42;;;;;;;4.63;2.75;;;;;;;14.84;58.39;99161.31;5094107;28;20020;-50
2022/04/15 04:00:16;;;;;;;7.18;2.75;;;;;;;14.76;58.34;99162.38;5094057;28;20020;-50
2022/04/15 04:02:46;;;;;;;8.85;3.10;;;;;;;14.70;58.83;99163.25;5093963;28;20073;-50
2022/04/15 04:05:15;;;;;;;4.75;2.70;;;;;;;14.70;58.63;99163.25;5095876;28;20024;-50
2022/04/15 04:07:42;;;;;;;9.43;3.03;;;;;;;14.71;58.29;99164.09;5095254;28;20397;-51
2022/04/15 04:10:08;;;;;;;11.02;2.80;;;;;;;14.56;58.58;99165.19;5093859;28;20024;-49
2022/04/15 04:12:34;;;;;;;10.73;6.07;;;;;;;14.46;58.96;99164.00;5093813;28;20028;-51
2022/04/15 04:15:05;;;;;;;10.45;3.67;;;;;;;14.36;59.13;99167.13;5093805;28;20020;-49
2022/04/15 04:17:31;;;;;;;14.38;3.50;;;;;;;14.29;59.66;99172.44;5094042;28;20043;-50
2022/04/15 04:19:57;;;;;;;6.25;2.75;;;;;;;14.27;59.51;99179.78;5093710;28;20024;-50
2022/04/15 04:22:30;;;;;;;16.00;4.78;;;;;;;14.29;59.79;99174.28;5093582;28;20127;-49
2022/04/15 04:24:57;;;;;;;16.17;3.70;;;;;;;14.26;59.45;99187.91;5094973;28;20531;-50
2022/04/15 04:27:23;;;;;;;5.57;3.03;;;;;;;14.17;59.70;99177.59;5093541;28;20024;-50
2022/04/15 04:29:49;;;;;;;4.90;2.80;;;;;;;14.14;59.85;99180.63;5093544;28;20031;-50
2022/04/15 04:32:16;;;;;;;4.53;2.95;;;;;;;14.09;59.77;99183.13;5093512;28;20053;-50
2022/04/15 04:34:41;;;;;;;7.25;3.60;;;;;;;14.03;60.46;99193.72;5093135;28;20091;-50
2022/04/15 04:37:07;;;;;;;5.57;3.08;;;;;;;14.03;60.16;99185.78;5093400;28;20409;-50
2022/04/15 04:39:33;;;;;;;8.10;2.85;;;;;;;14.05;60.36;99184.56;5094645;28;20020;-50
2022/04/15 04:42:02;;;;;;;5.95;2.95;;;;;;;14.11;60.32;99186.34;5093472;28;20563;-51
2022/04/15 04:44:29;;;;;;;6.82;2.72;;;;;;;14.24;60.27;99180.19;5093221;28;20059;-50
2022/04/15 04:46:56;;;;;;;11.20;3.58;;;;;;;14.32;60.18;99187.06;5093144;28;20393;-50
2022/04/15 04:49:22;;;;;;;9.88;2.70;;;;;;;14.40;59.73;99189.44;5093487;28;20114;-50
2022/04/15 04:51:48;;;;;;;8.85;2.53;;;;;;;14.43;59.83;99194.31;5093104;28;20466;-51
2022/04/15 04:54:15;;;;;;;8.23;3.13;;;;;;;14.42;59.81;99191.88;5093049;28;20031;-50
2022/04/15 04:56:40;;;;;;;11.25;3.40;;;;;;;14.41;59.71;99201.63;5093294;28;20401;-50
2022/04/15 04:59:06;;;;;;;6.78;3.22;;;;;;;14.48;59.48;99196.31;5094366;28;20024;-50
2022/04/15 05:01:32;;;;;;;12.55;2.72;;;;;;;14.49;59.38;99197.94;5092695;28;20125;-50
2022/04/15 05:03:57;;;;;;;14.00;3.90;;;;;;;14.55;59.46;99205.81;5094169;28;20031;-50
2022/04/15 05:06:23;;;;;;;10.95;3.28;;;;;;;14.67;59.14;99205.13;5092802;28;20035;-50
2022/04/15 05:08:50;;;;;;;9.45;3.08;;;;;;;14.76;59.18;99207.31;5092732;28;20398;-50
2022/04/15 05:11:16;;;;;;;9.50;4.50;;;;;;;14.82;58.84;99208.28;5092751;28;20542;-50
2022/04/15 05:13:42;;;;;;;8.52;3.00;;;;;;;14.82;58.30;99218.06;5092723;28;20429;-50
2022/04/15 05:16:07;;;;;;;12.25;3.50;;;;;;;14.79;58.54;99214.00;5092632;28;20028;-50
2022/04/15 05:18:34;;;;;;;5.63;3.20;;;;;;;14.83;58.30;99224.94;5075773;28;20417;-51
2022/04/15 05:21:01;;;;;;;6.78;2.72;;;;;;;14.94;58.02;99222.41;5092568;28;20032;-50
2022/04/15 05:23:26;;;;;;;16.60;3.38;;;;;;;15.09;57.85;99227.41;5092396;28;20046;-50
2022/04/15 05:25:52;;;;;;;9.15;3.33;;;;;;;15.25;57.78;99228.69;5092426;28;20115;-50
2022/04/15 05:28:18;;;;;;;7.18;2.75;;;;;;;15.46;57.06;99226.66;5092409;28;20024;-50
2022/04/15 05:30:44;;;;;;;9.85;3.45;;;;;;;15.68;56.41;99233.16;5092283;28;20034;-50
2022/04/15 05:33:09;;;;;;;9.32;3.17;;;;;;;15.87;55.86;99236.63;5093689;28;20110;-49
2022/04/15 05:35:35;;;;;;;14.02;3.78;;;;;;;16.04;54.94;99228.91;5092044;28;20094;-50
2022/04/15 05:38:02;;;;;;;15.00;4.18;;;;;;;16.08;54.20;99238.03;5093553;28;20031;-50
2022/04/15 05:40:28;;;;;;;16.58;4.65;;;;;;;16.12;53.90;99233.09;5092098;28;20521;-50
2022/04/15 05:42:54;;;;;;;8.00;3.65;;;;;;;15.85;54.27;99237.88;5092084;28;20028;-49
2022/04/15 05:45:20;;;;;;;13.52;4.68;;;;;;;15.74;54.38;99242.06;5091983;28;20043;-50
2022/04/15 05:47:46;;;;;;;14.90;7.07;;;;;;;15.84;54.49;99244.22;5092043;28;20021;-51
2022/04/15 05:50:12;;;;;;;13.38;4.65;;;;;;;16.01;53.96;99250.50;5091982;28;20516;-50
2022/04/15 05:52:37;;;;;;;17.95;5.50;;;;;;;15.97;54.06;99250.13;5093239;28;20112;-51
2022/04/15 05:55:04;;;;;;;21.38;5.60;;;;;;;16.22;53.93;99243.13;5091865;28;20494;-50
2022/04/15 05:57:29;;;;;;;18.63;5.30;;;;;;;16.55;53.21;99248.81;5091826;28;20027;-50
2022/04/15 05:59:55;;;;;;;8.90;3.28;;;;;;;17.01;52.57;99251.84;5093115;28;20024;-50
2022/04/15 06:02:21;;;;;;;14.85;4.63;;;;;;;17.60;51.78;99254.50;5091624;28;20501;-51
2022/04/15 06:04:48;;;;;;;12.30;4.72;;;;;;;18.17;49.93;99253.88;5093059;28;20020;-50
2022/04/15 06:07:13;;;;;;;12.25;3.60;;;;;;;18.67;48.86;99255.03;5091624;28;20137;-50
2022/04/15 06:09:39;;;;;;;15.27;6.07;;;;;;;19.08;47.79;99256.56;5091581;28;20016;-50
2022/04/15 06:12:05;;;;;;;14.65;5.43;;;;;;;19.47;46.71;99261.94;5093148;28;20055;-50
2022/04/15 06:14:35;;;;;;;10.43;3.95;;;;;;;19.89;45.87;99258.00;5092259;28;20469;-50
2022/04/15 06:17:01;;;;;;;12.88;4.75;;;;;;;20.35;44.91;99259.34;5091440;28;20100;-50
2022/04/15 06:19:27;;;;;;;9.77;3.45;;;;;;;20.71;43.94;99261.59;5091396;28;20565;-49
2022/04/15 06:21:52;;;;;;;11.60;3.17;;;;;;;20.93;43.17;99257.00;5092628;28;20035;-49
2022/04/15 06:24:18;;;;;;;14.27;3.35;;;;;;;21.12;42.45;99253.94;5092617;28;20024;-50
2022/04/15 06:26:44;;;;;;;9.55;4.30;;;;;;;21.42;42.18;99257.88;5092610;28;20028;-49
2022/04/15 06:29:10;;;;;;;13.45;4.32;;;;;;;21.88;41.36;99255.50;5091292;28;20149;-50
2022/04/15 06:31:35;;;;;;;8.35;3.15;;;;;;;22.33;40.37;99252.22;5091143;28;20024;-50
2022/04/15 06:34:01;;;;;;;17.42;4.05;;;;;;;22.69;39.73;99254.94;5092517;28;20024;-50
2022/04/15 06:36:27;;;;;;;54.33;5.75;;;;;;;23.00;39.47;99254.16;5091182;28;20528;-50
2022/04/15 06:38:53;;;;;;;36.38;5.82;;;;;;;23.37;38.85;99253.09;5091131;28;20024;-51
2022/04/15 06:41:18;;;;;;;50.63;6.03;;;;;;;23.67;38.17;99250.34;5091060;28;20107;-51
2022/04/15 06:43:44;;;;;;;23.92;3.78;;;;;;;23.50;37.94;99255.19;5092305;28;20393;-51
2022/04/15 06:46:09;;;;;;;13.05;3.40;;;;;;;23.49;38.24;99261.63;5091058;28;20020;-50
2022/04/15 06:48:35;;;;;;;13.82;4.40;;;;;;;23.68;37.61;99253.81;5092394;28;20578;-51
2022/04/15 06:51:02;;;;;;;13.85;3.90;;;;;;;23.65;37.95;99251.69;5091216;28;20031;-51
2022/04/15 06:53:29;;;;;;;41.53;6.70;;;;;;;23.79;37.41;99260.00;5092229;28;20035;-51
2022/04/15 06:55:55;;;;;;;11.52;3.38;;;;;;;23.99;36.84;99256.44;5090864;28;20517;-51
2022/04/15 06:58:20;;;;;;;10.05;3.00;;;;;;;24.05;36.20;99264.16;5090850;28;20154;-50
2022/04/15 07:00:52;;;;;;;8.40;3.45;;;;;;;24.28;35.77;99265.38;5090745;28;20035;-51
2022/04/15 07:03:17;;;;;;;9.55;3.95;;;;;;;24.67;35.14;99269.22;5092280;28;20519;-50
2022/04/15 07:05:44;;;;;;;7.85;3.60;;;;;;;25.07;34.24;99257.38;5092038;28;20020;-51
2022/04/15 07:08:11;;;;;;;14.07;4.35;;;;;;;25.32;33.94;99258.25;5091995;28;20525;-50
2022/04/15 07:10:40;;;;;;;6.38;3.38;;;;;;;25.56;33.34;99262.84;5092004;28;20389;-51
2022/04/15 07:13:06;;;;;;;4.93;3.65;;;;;;;25.77;32.51;99268.78;5091959;28;20150;-51
2022/04/15 07:15:32;;;;;;;11.88;3.35;;;;;;;25.82;32.82;99258.78;5090566;28;20030;-51
2022/04/15 07:17:59;;;;;;;15.73;3.70;;;;;;;25.79;32.92;99264.72;5090587;28;20031;-50
2022/04/15 07:20:25;;;;;;;6.40;3.13;;;;;;;26.09;32.07;99258.19;5091861;28;20020;-50
2022/04/15 07:22:56;;;;;;;11.38;3.85;;;;;;;26.45;32.33;99267.69;5091770;28;20028;-50
2022/04/15 07:25:22;;;;;;;9.15;3.17;;;;;;;27.07;30.84;99262.97;5092169;28;20027;-51
2022/04/15 07:27:48;;;;;;;11.55;3.78;;;;;;;27.52;29.75;99262.50;5094729;28;20077;-51
2022/04/15 07:30:13;;;;;;;12.65;4.13;;;;;;;27.81;29.05;99264.91;5094643;28;20028;-51
2022/04/15 07:32:39;;;;;;;6.72;3.42;;;;;;;28.04;29.16;99252.31;5096038;28;20020;-51
2022/04/15 07:35:05;;;;;;;11.40;3.42;;;;;;;28.36;28.30;99260.56;5094363;28;20502;-51
2022/04/15 07:37:31;;;;;;;10.18;3.80;;;;;;;28.71;28.22;99263.56;5094552;28;20052;-51
2022/04/15 07:39:57;;;;;;;7.88;3.60;;;;;;;29.11;27.29;99256.38;5094519;28;20082;-52
2022/04/15 07:42:22;;;;;;;8.43;3.38;;;;;;;29.33;27.03;99254.75;5095665;28;20020;-50
2022/04/15 07:44:48;;;;;;;12.75;3.72;;;;;;;29.50;27.00;99257.53;5095779;28;20204;-50
2022/04/15 07:47:15;;;;;;;15.88;4.05;;;;;;;29.97;26.51;99252.44;5095648;28;20524;-52
2022/04/15 07:49:41;;;;;;;15.30;3.80;;;;;;;30.25;26.13;99246.75;5095637;28;20521;-51
2022/04/15 07:52:08;;;;;;;12.73;4.15;;;;;;;30.45;25.65;99254.28;5094209;28;20032;-51
2022/04/15 07:54:34;;;;;;;11.48;4.05;;;;;;;30.79;25.28;99251.88;5095599;28;20032;-52
2022/04/15 07:57:01;;;;;;;10.27;3.50;;;;;;;30.63;25.37;99246.94;5095492;28;20020;-51
2022/04/15 07:59:28;;;;;;;10.10;4.15;;;;;;;30.75;25.22;99253.63;5094115;28;20024;-50
2022/04/15 08:01:53;;;;;;;13.52;4.30;;;;;;;30.93;25.17;99254.41;5095321;28;20103;-51
2022/04/15 08:04:20;;;;;;;10.55;4.55;;;;;;;30.63;25.58;99252.38;5094026;28;20050;-51
2022/04/15 08:06:46;;;;;;;11.23;4.13;;;;;;;30.82;25.35;99251.22;5077089;28;20111;-51
2022/04/15 08:09:12;;;;;;;11.18;4.60;;;;;;;31.04;25.32;99237.47;5093917;28;20115;-51
2022/04/15 08:11:37;;;;;;;11.52;3.80;;;;;;;31.11;25.18;99247.84;5093855;28;20031;-51
2022/04/15 08:14:04;;;;;;;14.82;3.85;;;;;;;31.50;24.98;99245.97;5076989;28;20024;-51
2022/04/15 08:16:30;;;;;;;15.27;3.90;;;;;;;31.80;24.31;99233.22;5095068;28;20102;-51
2022/04/15 08:18:56;;;;;;;11.07;4.10;;;;;;;31.98;24.29;99235.81;5093734;28;20123;-49
2022/04/15 08:21:23;;;;;;;15.23;3.55;;;;;;;32.45;23.76;99236.44;5095028;28;20028;-51
2022/04/15 08:23:49;;;;;;;8.55;3.80;;;;;;;32.73;23.24;99235.91;5093605;28;20142;-51
2022/04/15 08:26:15;;;;;;;8.75;3.90;;;;;;;32.95;23.19;99233.91;5093498;28;20028;-51
2022/04/15 08:28:41;;;;;;;11.32;3.50;;;;;;;33.09;22.76;99226.28;5093581;28;20035;-51
2022/04/15 08:31:07;;;;;;;12.30;3.65;;;;;;;33.07;22.83;99242.09;5094818;28;20125;-51
2022/04/15 08:33:34;;;;;;;5.10;3.67;;;;;;;32.90;22.92;99242.28;5093510;28;20031;-50
2022/04/15 08:36:00;;;;;;;7.68;3.45;;;;;;;32.81;23.40;99239.66;5094272;28;20052;-51
2022/04/15 08:38:26;;;;;;;16.10;4.78;;;;;;;32.74;23.31;99242.94;5094517;28;20390;-50
2022/04/15 08:40:59;;;;;;;8.73;3.85;;;;;;;32.67;23.31;99239.94;5093338;28;20165;-51
2022/04/15 08:43:26;;;;;;;11.10;3.80;;;;;;;32.73;23.21;99233.19;5094621;28;20024;-51
2022/04/15 08:45:52;;;;;;;17.27;4.53;;;;;;;32.52;23.75;99240.53;5093185;28;20016;-51
2022/04/15 08:48:18;;;;;;;18.10;4.30;;;;;;;32.52;24.13;99241.34;5094506;28;20028;-52
2022/04/15 08:50:43;;;;;;;13.13;4.40;;;;;;;32.84;23.83;99236.28;5093113;28;20607;-51
2022/04/15 08:53:10;;;;;;;11.68;5.57;;;;;;;33.09;23.02;99229.00;5093079;28;20039;-50
2022/04/15 08:55:36;;;;;;;9.52;4.45;;;;;;;33.18;23.37;99237.03;5094424;28;20705;-52
2022/04/15 08:58:02;;;;;;;14.77;4.65;;;;;;;32.96;23.42;99236.31;5093017;28;20034;-51
2022/04/15 09:00:28;;;;;;;23.00;8.50;;;;;;;33.09;23.42;99245.31;5092930;28;20120;-51
2022/04/15 09:02:55;;;;;;;14.40;5.60;;;;;;;33.34;22.71;99245.34;5094228;28;20216;-52
2022/04/15 09:05:26;;;;;;;23.25;6.28;;;;;;;33.51;23.19;99244.34;5092843;28;20119;-51
2022/04/15 09:08:07;;;;;;;17.13;6.05;;;;;;;33.84;22.92;99246.94;5092938;28;20060;-52
2022/04/15 09:10:34;;;;;;;20.02;7.22;;;;;;;34.05;22.34;99238.66;5094093;28;20016;-51
2022/04/15 09:13:03;;;;;;;12.13;9.13;;;;;;;34.29;22.02;99248.72;5094056;28;20028;-52
2022/04/15 09:15:29;;;;;;;37.10;13.43;;;;;;;34.68;21.86;99246.31;5094008;28;20371;-51
2022/04/15 09:17:55;;;;;;;17.63;8.68;;;;;;;34.85;21.39;99244.41;5093944;28;20051;-52
2022/04/15 09:20:22;;;;;;;20.67;5.45;;;;;;;35.08;21.39;99248.16;5093850;28;20020;-51
2022/04/15 09:22:53;;;;;;;7.45;4.70;;;;;;;35.65;20.85;99247.97;5093823;28;20132;-51
2022/04/15 09:25:26;;;;;;;10.00;4.30;;;;;;;36.12;20.60;99244.34;5075840;28;20122;-52
2022/04/15 09:27:56;;;;;;;9.93;4.20;;;;;;;36.09;20.30;99234.94;5092534;28;20032;-52
2022/04/15 09:30:39;;;;;;;32.10;5.80;;;;;;;35.86;20.60;99250.41;5075595;28;20016;-52
2022/04/15 09:33:04;;;;;;;15.15;4.70;;;;;;;35.79;20.76;99238.19;5092475;28;20077;-52
2022/04/15 09:35:31;;;;;;;16.63;4.10;;;;;;;35.42;21.21;99243.16;5093407;28;20056;-52
2022/04/15 09:38:03;;;;;;;22.88;6.30;;;;;;;35.47;21.10;99240.16;5093567;28;20024;-52
2022/04/15 09:40:32;;;;;;;10.32;3.65;;;;;;;35.92;20.51;99244.34;5092238;28;20032;-52
2022/04/15 09:42:58;;;;;;;13.07;4.00;;;;;;;36.35;20.16;99236.28;5093363;28;20051;-52
2022/04/15 09:45:26;;;;;;;9.98;3.88;;;;;;;36.59;20.18;99235.97;5093304;28;20101;-51
2022/04/15 09:48:07;;;;;;;6.63;4.28;;;;;;;36.85;19.99;99231.00;5092851;28;20390;-52
2022/04/15 09:50:36;;;;;;;11.75;3.90;;;;;;;37.10;19.87;99229.47;5075109;28;20031;-52
2022/04/15 09:53:12;;;;;;;20.27;5.50;;;;;;;36.90;19.54;99236.16;5091876;28;20156;-52
2022/04/15 09:55:46;;;;;;;18.65;5.35;;;;;;;36.93;19.85;99227.22;5091886;28;20024;-51
2022/04/15 09:58:17;;;;;;;10.55;4.82;;;;;;;36.68;19.79;99233.03;5093111;28;20030;-51
2022/04/15 10:00:49;;;;;;;25.88;6.55;;;;;;;36.48;20.08;99228.69;5093140;28;20024;-51
2022/04/15 10:03:19;;;;;;;15.52;5.13;;;;;;;36.36;19.96;99224.16;5093100;28;20032;-51
2022/04/15 10:05:46;;;;;;;10.73;4.75;;;;;;;36.26;20.11;99232.94;5091681;28;20397;-52
2022/04/15 10:08:13;;;;;;;15.18;4.93;;;;;;;36.20;20.52;99226.97;5092967;28;20082;-52
2022/04/15 10:10:39;;;;;;;9.23;4.53;;;;;;;36.43;20.07;99229.78;5092945;28;20050;-52
2022/04/15 10:13:07;;;;;;;14.90;5.50;;;;;;;36.19;20.31;99228.16;5093116;28;20450;-52
2022/04/15 10:15:34;;;;;;;18.35;5.90;;;;;;;35.98;20.57;99218.31;5091484;28;20089;-50
2022/04/15 10:18:01;;;;;;;15.07;5.63;;;;;;;35.56;20.88;99218.94;5092741;28;20043;-51
2022/04/15 10:20:28;;;;;;;8.57;4.65;;;;;;;35.45;21.46;99215.13;5092761;28;20073;-51
2022/04/15 10:22:59;;;;;;;10.05;4.63;;;;;;;35.79;21.15;99221.00;5092563;28;20061;-51
2022/04/15 10:25:26;;;;;;;29.67;6.28;;;;;;;36.22;20.74;99221.94;5091372;28;20039;-50
2022/04/15 10:27:51;;;;;;;12.82;4.63;;;;;;;36.37;20.42;99217.56;5091306;28;20028;-52
2022/04/15 10:30:22;;;;;;;15.93;5.00;;;;;;;36.66;20.41;99212.66;5091290;28;20481;-50
2022/04/15 10:32:53;;;;;;;10.60;5.43;;;;;;;37.07;19.77;99210.28;5091234;28;20020;-52
2022/04/15 10:35:24;;;;;;;15.90;4.57;;;;;;;37.03;19.93;99221.16;5092258;28;20036;-52
2022/04/15 10:38:01;;;;;;;11.10;4.65;;;;;;;37.15;19.97;99212.00;5091523;28;20028;-51
2022/04/15 10:40:34;;;;;;;9.57;4.82;;;;;;;37.28;19.81;99209.84;5091118;28;20028;-51
2022/04/15 10:43:21;;;;;;;13.88;4.72;;;;;;;37.54;19.94;99207.09;5092254;28;20016;-50
2022/04/15 10:45:47;;;;;;;11.95;5.18;;;;;;;37.80;19.38;99208.28;5091194;28;20036;-52
2022/04/15 10:48:13;;;;;;;10.98;4.43;;;;;;;38.01;18.80;99201.50;5090953;28;20024;-52
2022/04/15 10:50:41;;;;;;;6.20;4.43;;;;;;;37.84;18.96;99189.94;5092256;28;20088;-52
2022/04/15 10:53:25;;;;;;;8.63;4.65;;;;;;;37.36;19.25;99193.16;5091030;28;20028;-52
2022/04/15 10:55:56;;;;;;;9.93;4.53;;;;;;;37.03;19.65;99187.50;5092194;28;20016;-51
2022/04/15 10:58:21;;;;;;;22.67;5.60;;;;;;;36.93;19.98;99189.72;5091044;28;20081;-52
2022/04/15 11:01:17;;;;;;;9.57;4.70;;;;;;;37.10;19.65;99182.94;5090589;28;20032;-51
2022/04/15 11:03:53;;;;;;;8.13;5.72;;;;;;;36.71;20.02;99174.88;5090514;28;20044;-52
2022/04/15 11:06:26;;;;;;;13.90;5.35;;;;;;;35.95;20.73;99172.59;5092011;28;20032;-51
2022/04/15 11:08:52;;;;;;;13.60;4.82;;;;;;;35.53;21.02;99173.22;5090725;28;20024;-50
2022/04/15 11:11:33;;;;;;;8.90;5.30;;;;;;;35.17;21.71;99172.38;5090705;28;20024;-50
2022/04/15 11:14:02;;;;;;;6.55;4.90;;;;;;;34.68;22.03;99178.16;5090693;28;20039;-51
2022/04/15 11:16:48;;;;;;;13.73;6.18;;;;;;;33.96;22.90;99170.66;5092223;28;20169;-51
2022/04/15 11:19:29;;;;;;;9.15;4.95;;;;;;;33.95;22.89;99165.59;5091926;28;20066;-50
2022/04/15 11:21:55;;;;;;;11.10;5.03;;;;;;;34.14;22.88;99163.03;5090452;28;20083;-51
2022/04/15 11:24:23;;;;;;;9.93;5.13;;;;;;;34.45;23.02;99155.28;5091842;28;20490;-52
2022/04/15 11:26:49;;;;;;;15.18;5.00;;;;;;;34.27;23.15;99157.53;5091861;28;20055;-51
2022/04/15 11:29:15;;;;;;;10.75;5.50;;;;;;;34.32;22.85;99158.09;5091845;28;20104;-52